Terminal Aerodrome Forecast
Issued by NWS Atlanta, GA

Home | Current Version | Previous Version | Text Only | Print | Product List | Glossary On
Versions: 1 2 3 4 5 6 7 8 9 10 11 12 13 14 15 16 17 18 19 20 21 22 23 24 25 26 27 28 29 30 31 32 33
000
FTUS42 KFFC 012327
TAFAHN
TAF
KAHN 012327Z 0200/0224 00000KT 2SM BR OVC004
      TEMPO 0200/0204 1SM -DZ BR OVC004
     FM020600 00000KT 4SM -RA OVC006
     FM020800 00000KT 1SM -DZ OVC004
     FM021600 24004KT 4SM -DZ OVC007
     FM022000 27005KT P6SM VCSH BKN012=

USA.gov is the U.S. government's official web portal to all federal, state and local government web resources and services.